sensor_id;sensor_type;location;lat;lon;timestamp;P1;durP1;ratioP1;P2;durP2;ratioP2
76393;SDS011;65216;51.090;-115.352;2023-04-25T00:01:58;17.70;;;1.70;;
76393;SDS011;65216;51.090;-115.352;2023-04-25T00:04:26;18.80;;;2.20;;
76393;SDS011;65216;51.090;-115.352;2023-04-25T00:07:00;15.10;;;2.00;;
76393;SDS011;65216;51.090;-115.352;2023-04-25T00:09:31;21.60;;;1.90;;
76393;SDS011;65216;51.090;-115.352;2023-04-25T00:11:59;24.70;;;2.20;;
76393;SDS011;65216;51.090;-115.352;2023-04-25T00:14:29;20.50;;;1.80;;
76393;SDS011;65216;51.090;-115.352;2023-04-25T00:17:00;15.50;;;1.90;;
76393;SDS011;65216;51.090;-115.352;2023-04-25T00:19:31;14.20;;;1.90;;
76393;SDS011;65216;51.090;-115.352;2023-04-25T00:22:00;10.90;;;1.60;;
76393;SDS011;65216;51.090;-115.352;2023-04-25T00:24:28;16.60;;;1.80;;
76393;SDS011;65216;51.090;-115.352;2023-04-25T00:27:01;16.70;;;1.70;;
76393;SDS011;65216;51.090;-115.352;2023-04-25T00:29:28;18.70;;;2.00;;
76393;SDS011;65216;51.090;-115.352;2023-04-25T00:31:55;18.30;;;1.90;;
76393;SDS011;65216;51.090;-115.352;2023-04-25T00:34:25;17.80;;;1.70;;
76393;SDS011;65216;51.090;-115.352;2023-04-25T00:36:53;19.10;;;1.70;;
76393;SDS011;65216;51.090;-115.352;2023-04-25T00:39:23;19.80;;;1.90;;
76393;SDS011;65216;51.090;-115.352;2023-04-25T00:41:55;21.00;;;1.60;;
76393;SDS011;65216;51.090;-115.352;2023-04-25T00:44:25;21.10;;;2.10;;
76393;SDS011;65216;51.090;-115.352;2023-04-25T00:46:55;18.80;;;1.70;;
76393;SDS011;65216;51.090;-115.352;2023-04-25T00:49:25;18.90;;;1.70;;
76393;SDS011;65216;51.090;-115.352;2023-04-25T00:51:52;16.20;;;1.90;;
76393;SDS011;65216;51.090;-115.352;2023-04-25T00:54:20;19.70;;;2.00;;
76393;SDS011;65216;51.090;-115.352;2023-04-25T00:56:47;19.20;;;2.00;;
76393;SDS011;65216;51.090;-115.352;2023-04-25T00:59:15;14.30;;;1.70;;
76393;SDS011;65216;51.090;-115.352;2023-04-25T01:01:43;19.10;;;1.70;;
76393;SDS011;65216;51.090;-115.352;2023-04-25T01:04:12;22.00;;;2.00;;
76393;SDS011;65216;51.090;-115.352;2023-04-25T01:06:40;23.40;;;2.20;;
76393;SDS011;65216;51.090;-115.352;2023-04-25T01:09:07;18.30;;;2.10;;
76393;SDS011;65216;51.090;-115.352;2023-04-25T01:11:35;22.70;;;2.10;;
76393;SDS011;65216;51.090;-115.352;2023-04-25T01:14:05;17.80;;;1.80;;
76393;SDS011;65216;51.090;-115.352;2023-04-25T01:16:33;17.10;;;2.00;;
76393;SDS011;65216;51.090;-115.352;2023-04-25T01:19:00;17.40;;;2.30;;
76393;SDS011;65216;51.090;-115.352;2023-04-25T01:21:31;24.10;;;2.10;;
76393;SDS011;65216;51.090;-115.352;2023-04-25T01:24:01;18.30;;;2.10;;
76393;SDS011;65216;51.090;-115.352;2023-04-25T01:26:31;21.00;;;2.20;;
76393;SDS011;65216;51.090;-115.352;2023-04-25T01:29:04;22.30;;;2.10;;
76393;SDS011;65216;51.090;-115.352;2023-04-25T01:31:32;21.80;;;2.00;;
76393;SDS011;65216;51.090;-115.352;2023-04-25T01:34:04;19.50;;;1.90;;
76393;SDS011;65216;51.090;-115.352;2023-04-25T01:36:31;26.90;;;2.20;;
76393;SDS011;65216;51.090;-115.352;2023-04-25T01:38:58;22.50;;;2.20;;
76393;SDS011;65216;51.090;-115.352;2023-04-25T01:41:30;25.30;;;2.10;;
76393;SDS011;65216;51.090;-115.352;2023-04-25T01:43:57;24.00;;;2.10;;
76393;SDS011;65216;51.090;-115.352;2023-04-25T01:46:25;23.00;;;2.40;;
76393;SDS011;65216;51.090;-115.352;2023-04-25T01:51:42;26.00;;;2.00;;
76393;SDS011;65216;51.090;-115.352;2023-04-25T01:54:12;23.30;;;2.20;;
76393;SDS011;65216;51.090;-115.352;2023-04-25T01:56:40;21.30;;;2.20;;
76393;SDS011;65216;51.090;-115.352;2023-04-25T01:59:11;19.70;;;2.00;;
76393;SDS011;65216;51.090;-115.352;2023-04-25T02:01:38;22.80;;;2.20;;
76393;SDS011;65216;51.090;-115.352;2023-04-25T02:04:07;18.80;;;1.90;;
76393;SDS011;65216;51.090;-115.352;2023-04-25T02:06:34;26.00;;;2.90;;
76393;SDS011;65216;51.090;-115.352;2023-04-25T02:09:04;23.00;;;2.50;;
76393;SDS011;65216;51.090;-115.352;2023-04-25T02:11:31;21.80;;;2.40;;
76393;SDS011;65216;51.090;-115.352;2023-04-25T02:13:58;17.60;;;2.10;;
76393;SDS011;65216;51.090;-115.352;2023-04-25T02:16:26;22.30;;;2.50;;
76393;SDS011;65216;51.090;-115.352;2023-04-25T02:18:53;19.20;;;2.30;;
76393;SDS011;65216;51.090;-115.352;2023-04-25T02:21:20;16.40;;;2.30;;
76393;SDS011;65216;51.090;-115.352;2023-04-25T02:23:49;17.50;;;1.90;;
76393;SDS011;65216;51.090;-115.352;2023-04-25T02:26:23;18.50;;;2.00;;
76393;SDS011;65216;51.090;-115.352;2023-04-25T02:28:54;17.60;;;2.20;;
76393;SDS011;65216;51.090;-115.352;2023-04-25T02:31:21;16.50;;;2.30;;
76393;SDS011;65216;51.090;-115.352;2023-04-25T02:33:48;23.50;;;2.30;;
76393;SDS011;65216;51.090;-115.352;2023-04-25T02:36:16;27.80;;;2.20;;
76393;SDS011;65216;51.090;-115.352;2023-04-25T02:38:43;25.10;;;2.40;;
76393;SDS011;65216;51.090;-115.352;2023-04-25T02:41:13;26.90;;;2.10;;
76393;SDS011;65216;51.090;-115.352;2023-04-25T02:43:40;16.40;;;2.00;;
76393;SDS011;65216;51.090;-115.352;2023-04-25T02:46:10;20.20;;;2.20;;
76393;SDS011;65216;51.090;-115.352;2023-04-25T02:48:37;12.80;;;1.80;;
76393;SDS011;65216;51.090;-115.352;2023-04-25T02:51:07;16.90;;;2.00;;
76393;SDS011;65216;51.090;-115.352;2023-04-25T02:53:34;19.20;;;1.90;;
76393;SDS011;65216;51.090;-115.352;2023-04-25T02:56:02;14.40;;;1.90;;
76393;SDS011;65216;51.090;-115.352;2023-04-25T02:58:29;16.90;;;2.10;;
76393;SDS011;65216;51.090;-115.352;2023-04-25T03:01:02;19.10;;;1.90;;
76393;SDS011;65216;51.090;-115.352;2023-04-25T03:03:29;14.60;;;2.20;;
76393;SDS011;65216;51.090;-115.352;2023-04-25T03:05:59;18.20;;;2.00;;
76393;SDS011;65216;51.090;-115.352;2023-04-25T03:08:26;18.70;;;1.90;;
76393;SDS011;65216;51.090;-115.352;2023-04-25T03:11:01;23.20;;;1.90;;
76393;SDS011;65216;51.090;-115.352;2023-04-25T03:13:31;12.10;;;1.50;;
76393;SDS011;65216;51.090;-115.352;2023-04-25T03:15:58;15.90;;;1.60;;
76393;SDS011;65216;51.090;-115.352;2023-04-25T03:18:26;11.20;;;1.60;;
76393;SDS011;65216;51.090;-115.352;2023-04-25T03:20:53;12.80;;;1.60;;
76393;SDS011;65216;51.090;-115.352;2023-04-25T03:23:20;15.60;;;2.00;;
76393;SDS011;65216;51.090;-115.352;2023-04-25T03:25:51;9.80;;;1.30;;
76393;SDS011;65216;51.090;-115.352;2023-04-25T03:28:22;18.50;;;2.00;;
76393;SDS011;65216;51.090;-115.352;2023-04-25T03:30:49;14.80;;;1.60;;
76393;SDS011;65216;51.090;-115.352;2023-04-25T03:33:16;18.70;;;1.70;;
76393;SDS011;65216;51.090;-115.352;2023-04-25T03:35:44;19.20;;;1.80;;
76393;SDS011;65216;51.090;-115.352;2023-04-25T03:38:11;14.80;;;1.70;;
76393;SDS011;65216;51.090;-115.352;2023-04-25T03:40:38;13.60;;;1.40;;
76393;SDS011;65216;51.090;-115.352;2023-04-25T03:43:06;16.40;;;1.70;;
76393;SDS011;65216;51.090;-115.352;2023-04-25T03:45:37;15.10;;;1.80;;
76393;SDS011;65216;51.090;-115.352;2023-04-25T03:48:04;14.10;;;1.60;;
76393;SDS011;65216;51.090;-115.352;2023-04-25T03:50:34;9.90;;;1.30;;
76393;SDS011;65216;51.090;-115.352;2023-04-25T03:53:01;15.00;;;2.30;;
76393;SDS011;65216;51.090;-115.352;2023-04-25T03:55:29;13.40;;;1.60;;
76393;SDS011;65216;51.090;-115.352;2023-04-25T03:57:58;12.80;;;1.70;;
76393;SDS011;65216;51.090;-115.352;2023-04-25T04:00:25;14.50;;;1.70;;
76393;SDS011;65216;51.090;-115.352;2023-04-25T04:02:53;13.70;;;1.50;;
76393;SDS011;65216;51.090;-115.352;2023-04-25T04:05:23;11.60;;;1.60;;
76393;SDS011;65216;51.090;-115.352;2023-04-25T04:07:50;18.40;;;1.70;;
76393;SDS011;65216;51.090;-115.352;2023-04-25T04:10:17;9.30;;;1.50;;
76393;SDS011;65216;51.090;-115.352;2023-04-25T04:12:44;11.20;;;1.20;;
76393;SDS011;65216;51.090;-115.352;2023-04-25T04:15:12;11.00;;;1.30;;
76393;SDS011;65216;51.090;-115.352;2023-04-25T04:17:42;10.20;;;1.10;;
76393;SDS011;65216;51.090;-115.352;2023-04-25T04:20:09;10.60;;;1.30;;
76393;SDS011;65216;51.090;-115.352;2023-04-25T04:22:39;7.40;;;0.90;;
76393;SDS011;65216;51.090;-115.352;2023-04-25T04:25:07;6.20;;;1.20;;
76393;SDS011;65216;51.090;-115.352;2023-04-25T04:27:35;6.00;;;1.10;;
76393;SDS011;65216;51.090;-115.352;2023-04-25T04:30:03;6.00;;;0.80;;
76393;SDS011;65216;51.090;-115.352;2023-04-25T04:32:30;5.60;;;1.00;;
76393;SDS011;65216;51.090;-115.352;2023-04-25T04:35:00;4.60;;;0.90;;
76393;SDS011;65216;51.090;-115.352;2023-04-25T04:37:28;3.20;;;0.50;;
76393;SDS011;65216;51.090;-115.352;2023-04-25T04:39:57;4.10;;;0.60;;
76393;SDS011;65216;51.090;-115.352;2023-04-25T04:42:25;4.90;;;0.50;;
76393;SDS011;65216;51.090;-115.352;2023-04-25T04:44:52;3.60;;;0.70;;
76393;SDS011;65216;51.090;-115.352;2023-04-25T04:47:20;4.20;;;0.80;;
76393;SDS011;65216;51.090;-115.352;2023-04-25T04:49:49;2.00;;;0.60;;
76393;SDS011;65216;51.090;-115.352;2023-04-25T04:52:20;2.10;;;0.60;;
76393;SDS011;65216;51.090;-115.352;2023-04-25T04:54:49;3.00;;;0.60;;
76393;SDS011;65216;51.090;-115.352;2023-04-25T04:57:16;2.30;;;0.40;;
76393;SDS011;65216;51.090;-115.352;2023-04-25T04:59:43;2.60;;;0.60;;
76393;SDS011;65216;51.090;-115.352;2023-04-25T05:02:11;2.90;;;0.50;;
76393;SDS011;65216;51.090;-115.352;2023-04-25T05:04:39;3.70;;;0.60;;
76393;SDS011;65216;51.090;-115.352;2023-04-25T05:07:06;4.30;;;0.70;;
76393;SDS011;65216;51.090;-115.352;2023-04-25T05:09:33;3.00;;;0.40;;
76393;SDS011;65216;51.090;-115.352;2023-04-25T05:12:00;2.00;;;0.60;;
76393;SDS011;65216;51.090;-115.352;2023-04-25T05:14:28;6.20;;;1.10;;
76393;SDS011;65216;51.090;-115.352;2023-04-25T05:16:55;4.60;;;0.60;;
76393;SDS011;65216;51.090;-115.352;2023-04-25T05:19:24;1.50;;;0.40;;
76393;SDS011;65216;51.090;-115.352;2023-04-25T05:21:51;2.40;;;0.50;;
76393;SDS011;65216;51.090;-115.352;2023-04-25T05:24:19;2.00;;;0.60;;
76393;SDS011;65216;51.090;-115.352;2023-04-25T05:26:46;5.20;;;0.70;;
76393;SDS011;65216;51.090;-115.352;2023-04-25T05:29:13;1.20;;;0.30;;
76393;SDS011;65216;51.090;-115.352;2023-04-25T05:31:40;3.00;;;0.60;;
76393;SDS011;65216;51.090;-115.352;2023-04-25T05:34:07;1.60;;;0.40;;
76393;SDS011;65216;51.090;-115.352;2023-04-25T05:36:34;1.60;;;0.60;;
76393;SDS011;65216;51.090;-115.352;2023-04-25T05:39:02;2.30;;;0.60;;
76393;SDS011;65216;51.090;-115.352;2023-04-25T05:41:30;1.70;;;0.60;;
76393;SDS011;65216;51.090;-115.352;2023-04-25T05:43:57;2.00;;;0.50;;
76393;SDS011;65216;51.090;-115.352;2023-04-25T05:46:24;2.10;;;0.60;;
76393;SDS011;65216;51.090;-115.352;2023-04-25T05:48:52;2.30;;;0.70;;
76393;SDS011;65216;51.090;-115.352;2023-04-25T05:51:22;3.70;;;0.90;;
76393;SDS011;65216;51.090;-115.352;2023-04-25T05:53:49;2.50;;;0.60;;
76393;SDS011;65216;51.090;-115.352;2023-04-25T05:56:16;2.80;;;0.80;;
76393;SDS011;65216;51.090;-115.352;2023-04-25T05:58:44;2.90;;;0.80;;
76393;SDS011;65216;51.090;-115.352;2023-04-25T06:01:12;7.50;;;0.80;;
76393;SDS011;65216;51.090;-115.352;2023-04-25T06:03:40;1.20;;;0.40;;
76393;SDS011;65216;51.090;-115.352;2023-04-25T06:06:09;2.30;;;0.60;;
76393;SDS011;65216;51.090;-115.352;2023-04-25T06:08:37;1.80;;;0.40;;
76393;SDS011;65216;51.090;-115.352;2023-04-25T06:11:04;1.90;;;0.50;;
76393;SDS011;65216;51.090;-115.352;2023-04-25T06:13:34;1.70;;;0.60;;
76393;SDS011;65216;51.090;-115.352;2023-04-25T06:16:02;4.50;;;0.70;;
76393;SDS011;65216;51.090;-115.352;2023-04-25T06:18:32;2.60;;;0.50;;
76393;SDS011;65216;51.090;-115.352;2023-04-25T06:21:02;1.80;;;0.30;;
76393;SDS011;65216;51.090;-115.352;2023-04-25T06:23:30;1.70;;;0.50;;
76393;SDS011;65216;51.090;-115.352;2023-04-25T06:25:57;3.80;;;0.70;;
76393;SDS011;65216;51.090;-115.352;2023-04-25T06:28:24;3.40;;;0.60;;
76393;SDS011;65216;51.090;-115.352;2023-04-25T06:30:51;3.50;;;0.50;;
76393;SDS011;65216;51.090;-115.352;2023-04-25T06:33:18;2.30;;;0.60;;
76393;SDS011;65216;51.090;-115.352;2023-04-25T06:35:47;1.60;;;0.50;;
76393;SDS011;65216;51.090;-115.352;2023-04-25T06:38:15;1.90;;;0.40;;
76393;SDS011;65216;51.090;-115.352;2023-04-25T06:40:42;1.50;;;0.50;;
76393;SDS011;65216;51.090;-115.352;2023-04-25T06:43:10;0.80;;;0.40;;
76393;SDS011;65216;51.090;-115.352;2023-04-25T06:45:36;2.50;;;0.40;;
76393;SDS011;65216;51.090;-115.352;2023-04-25T06:48:04;1.00;;;0.50;;
76393;SDS011;65216;51.090;-115.352;2023-04-25T06:50:31;2.60;;;0.50;;
76393;SDS011;65216;51.090;-115.352;2023-04-25T06:52:59;3.10;;;0.40;;
76393;SDS011;65216;51.090;-115.352;2023-04-25T06:55:27;1.70;;;0.40;;
76393;SDS011;65216;51.090;-115.352;2023-04-25T06:57:54;0.70;;;0.30;;
76393;SDS011;65216;51.090;-115.352;2023-04-25T07:00:22;1.20;;;0.40;;
76393;SDS011;65216;51.090;-115.352;2023-04-25T07:02:49;1.10;;;0.30;;
76393;SDS011;65216;51.090;-115.352;2023-04-25T07:05:16;0.50;;;0.20;;
76393;SDS011;65216;51.090;-115.352;2023-04-25T07:07:43;1.10;;;0.20;;
76393;SDS011;65216;51.090;-115.352;2023-04-25T07:10:11;1.40;;;0.30;;
76393;SDS011;65216;51.090;-115.352;2023-04-25T07:12:38;1.20;;;0.30;;
76393;SDS011;65216;51.090;-115.352;2023-04-25T07:15:06;1.40;;;0.40;;
76393;SDS011;65216;51.090;-115.352;2023-04-25T07:17:36;0.80;;;0.30;;
76393;SDS011;65216;51.090;-115.352;2023-04-25T07:20:04;0.90;;;0.50;;
76393;SDS011;65216;51.090;-115.352;2023-04-25T07:22:32;0.90;;;0.30;;
76393;SDS011;65216;51.090;-115.352;2023-04-25T07:24:59;1.30;;;0.30;;
76393;SDS011;65216;51.090;-115.352;2023-04-25T07:27:27;1.60;;;0.40;;
76393;SDS011;65216;51.090;-115.352;2023-04-25T07:29:54;0.40;;;0.20;;
76393;SDS011;65216;51.090;-115.352;2023-04-25T07:32:21;1.30;;;0.30;;
76393;SDS011;65216;51.090;-115.352;2023-04-25T07:34:52;0.90;;;0.30;;
76393;SDS011;65216;51.090;-115.352;2023-04-25T07:37:19;1.00;;;0.30;;
76393;SDS011;65216;51.090;-115.352;2023-04-25T07:39:46;1.60;;;0.30;;
76393;SDS011;65216;51.090;-115.352;2023-04-25T07:42:14;0.40;;;0.20;;
76393;SDS011;65216;51.090;-115.352;2023-04-25T07:44:41;0.40;;;0.30;;
76393;SDS011;65216;51.090;-115.352;2023-04-25T07:47:09;1.00;;;0.50;;
76393;SDS011;65216;51.090;-115.352;2023-04-25T07:49:39;1.00;;;0.20;;
76393;SDS011;65216;51.090;-115.352;2023-04-25T07:52:07;0.10;;;0.00;;
76393;SDS011;65216;51.090;-115.352;2023-04-25T07:54:34;0.30;;;0.20;;
76393;SDS011;65216;51.090;-115.352;2023-04-25T07:57:02;0.20;;;0.10;;
76393;SDS011;65216;51.090;-115.352;2023-04-25T07:59:29;0.10;;;0.00;;
76393;SDS011;65216;51.090;-115.352;2023-04-25T08:01:56;0.50;;;0.20;;
76393;SDS011;65216;51.090;-115.352;2023-04-25T08:04:24;1.20;;;0.10;;
76393;SDS011;65216;51.090;-115.352;2023-04-25T08:06:52;0.10;;;0.10;;
76393;SDS011;65216;51.090;-115.352;2023-04-25T08:09:24;0.30;;;0.20;;
76393;SDS011;65216;51.090;-115.352;2023-04-25T08:11:51;0.20;;;0.10;;
76393;SDS011;65216;51.090;-115.352;2023-04-25T08:14:21;1.00;;;0.30;;
76393;SDS011;65216;51.090;-115.352;2023-04-25T08:16:51;0.20;;;0.20;;
76393;SDS011;65216;51.090;-115.352;2023-04-25T08:19:18;0.20;;;0.20;;
76393;SDS011;65216;51.090;-115.352;2023-04-25T08:21:46;0.40;;;0.20;;
76393;SDS011;65216;51.090;-115.352;2023-04-25T08:24:13;0.50;;;0.10;;
76393;SDS011;65216;51.090;-115.352;2023-04-25T08:26:40;0.40;;;0.10;;
76393;SDS011;65216;51.090;-115.352;2023-04-25T08:29:07;0.20;;;0.20;;
76393;SDS011;65216;51.090;-115.352;2023-04-25T08:31:34;0.40;;;0.20;;
76393;SDS011;65216;51.090;-115.352;2023-04-25T08:34:02;0.60;;;0.30;;
76393;SDS011;65216;51.090;-115.352;2023-04-25T08:36:29;0.30;;;0.20;;
76393;SDS011;65216;51.090;-115.352;2023-04-25T08:38:58;0.20;;;0.10;;
76393;SDS011;65216;51.090;-115.352;2023-04-25T08:41:27;0.50;;;0.30;;
76393;SDS011;65216;51.090;-115.352;2023-04-25T08:43:56;0.80;;;0.30;;
76393;SDS011;65216;51.090;-115.352;2023-04-25T08:46:26;1.40;;;0.20;;
76393;SDS011;65216;51.090;-115.352;2023-04-25T08:48:57;0.70;;;0.30;;
76393;SDS011;65216;51.090;-115.352;2023-04-25T08:51:31;0.30;;;0.20;;
76393;SDS011;65216;51.090;-115.352;2023-04-25T08:54:12;0.40;;;0.20;;
76393;SDS011;65216;51.090;-115.352;2023-04-25T08:56:45;1.40;;;0.30;;
76393;SDS011;65216;51.090;-115.352;2023-04-25T08:59:14;0.70;;;0.10;;
76393;SDS011;65216;51.090;-115.352;2023-04-25T09:01:41;0.40;;;0.30;;
76393;SDS011;65216;51.090;-115.352;2023-04-25T09:04:08;0.50;;;0.10;;
76393;SDS011;65216;51.090;-115.352;2023-04-25T09:06:35;0.60;;;0.20;;
76393;SDS011;65216;51.090;-115.352;2023-04-25T09:09:07;0.40;;;0.30;;
76393;SDS011;65216;51.090;-115.352;2023-04-25T09:11:36;0.10;;;0.00;;
76393;SDS011;65216;51.090;-115.352;2023-04-25T09:14:17;0.20;;;0.20;;
76393;SDS011;65216;51.090;-115.352;2023-04-25T09:19:27;0.20;;;0.20;;
76393;SDS011;65216;51.090;-115.352;2023-04-25T09:21:56;0.10;;;0.10;;
76393;SDS011;65216;51.090;-115.352;2023-04-25T09:24:38;0.70;;;0.10;;
76393;SDS011;65216;51.090;-115.352;2023-04-25T09:29:57;0.00;;;0.00;;
76393;SDS011;65216;51.090;-115.352;2023-04-25T09:32:26;0.00;;;0.00;;
76393;SDS011;65216;51.090;-115.352;2023-04-25T09:34:57;0.20;;;0.20;;
76393;SDS011;65216;51.090;-115.352;2023-04-25T09:37:30;0.20;;;0.10;;
76393;SDS011;65216;51.090;-115.352;2023-04-25T09:39:59;0.20;;;0.20;;
76393;SDS011;65216;51.090;-115.352;2023-04-25T09:42:32;0.40;;;0.20;;
76393;SDS011;65216;51.090;-115.352;2023-04-25T09:45:03;0.30;;;0.20;;
76393;SDS011;65216;51.090;-115.352;2023-04-25T09:47:30;0.00;;;0.00;;
76393;SDS011;65216;51.090;-115.352;2023-04-25T09:49:58;1.70;;;0.30;;
76393;SDS011;65216;51.090;-115.352;2023-04-25T09:52:25;0.50;;;0.10;;
76393;SDS011;65216;51.090;-115.352;2023-04-25T09:54:59;0.30;;;0.20;;
76393;SDS011;65216;51.090;-115.352;2023-04-25T09:57:26;0.00;;;0.00;;
76393;SDS011;65216;51.090;-115.352;2023-04-25T09:59:55;0.10;;;0.10;;
76393;SDS011;65216;51.090;-115.352;2023-04-25T10:02:24;0.60;;;0.10;;
76393;SDS011;65216;51.090;-115.352;2023-04-25T10:04:53;0.30;;;0.10;;
76393;SDS011;65216;51.090;-115.352;2023-04-25T10:07:30;0.70;;;0.30;;
76393;SDS011;65216;51.090;-115.352;2023-04-25T10:10:02;0.00;;;0.00;;
76393;SDS011;65216;51.090;-115.352;2023-04-25T10:12:34;0.60;;;0.20;;
76393;SDS011;65216;51.090;-115.352;2023-04-25T10:15:03;0.10;;;0.00;;
76393;SDS011;65216;51.090;-115.352;2023-04-25T10:17:31;0.10;;;0.10;;
76393;SDS011;65216;51.090;-115.352;2023-04-25T10:20:02;0.00;;;0.00;;
76393;SDS011;65216;51.090;-115.352;2023-04-25T10:22:38;0.50;;;0.20;;
76393;SDS011;65216;51.090;-115.352;2023-04-25T10:25:14;0.40;;;0.20;;
76393;SDS011;65216;51.090;-115.352;2023-04-25T10:27:41;0.60;;;0.10;;
76393;SDS011;65216;51.090;-115.352;2023-04-25T10:30:13;0.20;;;0.10;;
76393;SDS011;65216;51.090;-115.352;2023-04-25T10:32:44;0.40;;;0.10;;
76393;SDS011;65216;51.090;-115.352;2023-04-25T10:35:19;0.00;;;0.00;;
76393;SDS011;65216;51.090;-115.352;2023-04-25T10:37:57;0.10;;;0.10;;
76393;SDS011;65216;51.090;-115.352;2023-04-25T10:40:32;0.10;;;0.10;;
76393;SDS011;65216;51.090;-115.352;2023-04-25T10:46:01;0.00;;;0.00;;
76393;SDS011;65216;51.090;-115.352;2023-04-25T10:48:35;0.40;;;0.00;;
76393;SDS011;65216;51.090;-115.352;2023-04-25T10:51:18;0.20;;;0.20;;
76393;SDS011;65216;51.090;-115.352;2023-04-25T10:56:35;0.00;;;0.00;;
76393;SDS011;65216;51.090;-115.352;2023-04-25T11:01:42;0.10;;;0.00;;
76393;SDS011;65216;51.090;-115.352;2023-04-25T11:04:25;0.20;;;0.20;;
76393;SDS011;65216;51.090;-115.352;2023-04-25T11:09:45;0.10;;;0.10;;
76393;SDS011;65216;51.090;-115.352;2023-04-25T11:12:12;0.20;;;0.00;;
76393;SDS011;65216;51.090;-115.352;2023-04-25T11:14:39;0.10;;;0.10;;
76393;SDS011;65216;51.090;-115.352;2023-04-25T11:17:09;0.40;;;0.10;;
76393;SDS011;65216;51.090;-115.352;2023-04-25T11:19:37;0.70;;;0.20;;
76393;SDS011;65216;51.090;-115.352;2023-04-25T11:22:06;0.50;;;0.10;;
76393;SDS011;65216;51.090;-115.352;2023-04-25T11:24:36;0.50;;;0.00;;
76393;SDS011;65216;51.090;-115.352;2023-04-25T11:27:04;0.00;;;0.00;;
76393;SDS011;65216;51.090;-115.352;2023-04-25T11:29:33;0.10;;;0.10;;
76393;SDS011;65216;51.090;-115.352;2023-04-25T11:32:01;0.10;;;0.10;;
76393;SDS011;65216;51.090;-115.352;2023-04-25T11:34:30;0.00;;;0.00;;
76393;SDS011;65216;51.090;-115.352;2023-04-25T11:36:59;0.50;;;0.10;;
76393;SDS011;65216;51.090;-115.352;2023-04-25T11:39:28;0.40;;;0.10;;
76393;SDS011;65216;51.090;-115.352;2023-04-25T11:41:56;0.50;;;0.20;;
76393;SDS011;65216;51.090;-115.352;2023-04-25T11:44:24;0.50;;;0.30;;
76393;SDS011;65216;51.090;-115.352;2023-04-25T11:46:52;0.00;;;0.00;;
76393;SDS011;65216;51.090;-115.352;2023-04-25T11:49:19;0.10;;;0.10;;
76393;SDS011;65216;51.090;-115.352;2023-04-25T11:51:48;0.40;;;0.20;;
76393;SDS011;65216;51.090;-115.352;2023-04-25T11:54:16;0.50;;;0.10;;
76393;SDS011;65216;51.090;-115.352;2023-04-25T11:56:44;0.60;;;0.10;;
76393;SDS011;65216;51.090;-115.352;2023-04-25T11:59:12;0.10;;;0.10;;
76393;SDS011;65216;51.090;-115.352;2023-04-25T12:01:41;0.60;;;0.10;;
76393;SDS011;65216;51.090;-115.352;2023-04-25T12:04:23;0.30;;;0.10;;
76393;SDS011;65216;51.090;-115.352;2023-04-25T12:06:53;0.00;;;0.00;;
76393;SDS011;65216;51.090;-115.352;2023-04-25T12:09:38;0.50;;;0.20;;
76393;SDS011;65216;51.090;-115.352;2023-04-25T12:12:10;0.10;;;0.10;;
76393;SDS011;65216;51.090;-115.352;2023-04-25T12:14:37;0.30;;;0.10;;
76393;SDS011;65216;51.090;-115.352;2023-04-25T12:17:05;0.50;;;0.10;;
76393;SDS011;65216;51.090;-115.352;2023-04-25T12:19:34;1.10;;;0.10;;
76393;SDS011;65216;51.090;-115.352;2023-04-25T12:22:22;0.40;;;0.10;;
76393;SDS011;65216;51.090;-115.352;2023-04-25T12:24:50;0.10;;;0.00;;
76393;SDS011;65216;51.090;-115.352;2023-04-25T12:27:19;0.70;;;0.20;;
76393;SDS011;65216;51.090;-115.352;2023-04-25T12:29:54;0.40;;;0.10;;
76393;SDS011;65216;51.090;-115.352;2023-04-25T12:32:25;0.50;;;0.20;;
76393;SDS011;65216;51.090;-115.352;2023-04-25T12:34:52;1.00;;;0.20;;
76393;SDS011;65216;51.090;-115.352;2023-04-25T12:37:22;0.80;;;0.10;;
76393;SDS011;65216;51.090;-115.352;2023-04-25T12:39:50;0.10;;;0.10;;
76393;SDS011;65216;51.090;-115.352;2023-04-25T12:42:17;0.30;;;0.20;;
76393;SDS011;65216;51.090;-115.352;2023-04-25T12:44:44;0.30;;;0.20;;
76393;SDS011;65216;51.090;-115.352;2023-04-25T12:47:14;0.00;;;0.00;;
76393;SDS011;65216;51.090;-115.352;2023-04-25T12:49:42;0.70;;;0.20;;
76393;SDS011;65216;51.090;-115.352;2023-04-25T12:52:09;0.30;;;0.20;;
76393;SDS011;65216;51.090;-115.352;2023-04-25T12:54:36;0.60;;;0.20;;
76393;SDS011;65216;51.090;-115.352;2023-04-25T12:57:04;0.60;;;0.10;;
76393;SDS011;65216;51.090;-115.352;2023-04-25T12:59:32;1.90;;;0.20;;
76393;SDS011;65216;51.090;-115.352;2023-04-25T13:02:02;1.20;;;0.40;;
76393;SDS011;65216;51.090;-115.352;2023-04-25T13:04:30;1.30;;;0.30;;
76393;SDS011;65216;51.090;-115.352;2023-04-25T13:06:58;4.90;;;0.40;;
76393;SDS011;65216;51.090;-115.352;2023-04-25T13:09:25;3.40;;;0.50;;
76393;SDS011;65216;51.090;-115.352;2023-04-25T13:11:53;1.70;;;0.50;;
76393;SDS011;65216;51.090;-115.352;2023-04-25T13:14:20;1.50;;;0.40;;
76393;SDS011;65216;51.090;-115.352;2023-04-25T13:16:48;3.00;;;0.60;;
76393;SDS011;65216;51.090;-115.352;2023-04-25T13:19:15;3.40;;;0.50;;
76393;SDS011;65216;51.090;-115.352;2023-04-25T13:21:45;4.90;;;0.60;;
76393;SDS011;65216;51.090;-115.352;2023-04-25T13:24:15;3.00;;;0.60;;
76393;SDS011;65216;51.090;-115.352;2023-04-25T13:26:43;2.60;;;0.50;;
76393;SDS011;65216;51.090;-115.352;2023-04-25T13:29:10;2.60;;;0.50;;
76393;SDS011;65216;51.090;-115.352;2023-04-25T13:31:41;1.60;;;0.50;;
76393;SDS011;65216;51.090;-115.352;2023-04-25T13:34:08;3.30;;;0.50;;
76393;SDS011;65216;51.090;-115.352;2023-04-25T13:36:37;3.20;;;0.50;;
76393;SDS011;65216;51.090;-115.352;2023-04-25T13:39:04;3.60;;;0.70;;
76393;SDS011;65216;51.090;-115.352;2023-04-25T13:41:32;4.70;;;0.80;;
76393;SDS011;65216;51.090;-115.352;2023-04-25T13:43:59;4.90;;;0.60;;
76393;SDS011;65216;51.090;-115.352;2023-04-25T13:46:27;3.50;;;0.50;;
76393;SDS011;65216;51.090;-115.352;2023-04-25T13:48:54;5.40;;;0.70;;
76393;SDS011;65216;51.090;-115.352;2023-04-25T13:51:21;3.70;;;0.80;;
76393;SDS011;65216;51.090;-115.352;2023-04-25T13:53:49;3.00;;;0.50;;
76393;SDS011;65216;51.090;-115.352;2023-04-25T13:56:16;4.90;;;0.80;;
76393;SDS011;65216;51.090;-115.352;2023-04-25T13:58:46;2.30;;;0.50;;
76393;SDS011;65216;51.090;-115.352;2023-04-25T14:01:16;3.00;;;0.50;;
76393;SDS011;65216;51.090;-115.352;2023-04-25T14:03:44;4.00;;;0.80;;
76393;SDS011;65216;51.090;-115.352;2023-04-25T14:06:11;3.30;;;0.50;;
76393;SDS011;65216;51.090;-115.352;2023-04-25T14:08:45;3.10;;;0.60;;
76393;SDS011;65216;51.090;-115.352;2023-04-25T14:11:36;3.10;;;0.60;;
76393;SDS011;65216;51.090;-115.352;2023-04-25T14:14:06;2.70;;;0.50;;
76393;SDS011;65216;51.090;-115.352;2023-04-25T14:19:30;2.20;;;0.50;;
76393;SDS011;65216;51.090;-115.352;2023-04-25T14:22:03;2.70;;;0.40;;
76393;SDS011;65216;51.090;-115.352;2023-04-25T14:24:30;1.90;;;0.50;;
76393;SDS011;65216;51.090;-115.352;2023-04-25T14:26:58;1.80;;;0.40;;
76393;SDS011;65216;51.090;-115.352;2023-04-25T14:29:25;3.80;;;0.50;;
76393;SDS011;65216;51.090;-115.352;2023-04-25T14:31:52;3.60;;;0.60;;
76393;SDS011;65216;51.090;-115.352;2023-04-25T14:34:20;1.70;;;0.50;;
76393;SDS011;65216;51.090;-115.352;2023-04-25T14:36:47;1.70;;;0.60;;
76393;SDS011;65216;51.090;-115.352;2023-04-25T14:39:14;3.30;;;0.70;;